Barbara E Bouchard — WBD6759 — position and weather

sailwx.info

Track history (hours):
 
Tides and Currents Weather Stations Pressure Air Temp Water Temp Dewpoint Dewpoint Depression Visibility Wind Speed Wind Dir Waves Ship Positions

Barbara E Bouchard

Owner: TUG BARBARA E BOUCHARD CORP, MELVILLE, NY. More information available from US FCC via Universal Licensing System and Coast Guard Vessel Documentation Center.

Last reported at 2018-Feb-19 19:33 UTC. Time now 2018-Feb-24 05:58 UTC.
Position N 29°19' W 094°36'.

Length 175 m; draft 6.7 m.

Type: Ship (hazmat cat D). MMSI: 367006520.

Date/timePositionNaut miles runAvg speedWind from/ knotsBaromVisibWave heightAir tempDewpointWater temp
2018-Feb-19 19:33N 29°19' W 094°36'0 0.0
2018-Feb-19 16:27N 29°19' W 094°36'0 0.0
2018-Feb-19 14:09N 29°19' W 094°36'0 0.0
2018-Feb-19 11:09N 29°19' W 094°36'0 0.0
2018-Feb-19 10:48N 29°19' W 094°36'0 0.0
2018-Feb-19 09:21N 29°19' W 094°36'0 0.0
2018-Feb-19 08:48N 29°19' W 094°36'0 0.0
2018-Feb-19 08:21N 29°19' W 094°36'0 0.0
2018-Feb-19 07:27N 29°19' W 094°36'0 0.0
2018-Feb-19 07:00N 29°19' W 094°36'0 0.0
2018-Feb-19 05:54N 29°19' W 094°36'0 0.0
2018-Feb-19 05:24N 29°19' W 094°36'  
2018-Feb-15 22:06N 27°42' W 082°33'110.1
2018-Feb-15 21:59N 27°43' W 082°32'5 8.9
2018-Feb-15 21:26N 27°48' W 082°30'4 8.5
2018-Feb-15 20:59N 27°50' W 082°27'4 8.8
2018-Feb-15 20:30N 27°55' W 082°26'0 0.5
2018-Feb-15 20:00N 27°55' W 082°27'0 0.0
2018-Feb-15 19:27N 27°55' W 082°27'0 0.1
2018-Feb-15 19:00N 27°55' W 082°27'1 2.7
2018-Feb-15 18:27N 27°56' W 082°27'0 0.0
2018-Feb-15 18:00N 27°56' W 082°27'0 0.0
2018-Feb-15 17:30N 27°56' W 082°27'0 0.0
2018-Feb-15 17:00N 27°56' W 082°27'0 0.0
2018-Feb-15 16:27N 27°56' W 082°27'0 0.0
2018-Feb-15 16:00N 27°56' W 082°27'0 0.0
2018-Feb-15 15:30N 27°56' W 082°27'0 0.0
2018-Feb-15 14:57N 27°56' W 082°27'0 0.0
2018-Feb-15 14:30N 27°56' W 082°27'0 0.0
2018-Feb-15 14:00N 27°56' W 082°27'0 0.0
2018-Feb-15 13:27N 27°56' W 082°27'0 0.0
2018-Feb-15 13:00N 27°56' W 082°27'0 0.0
2018-Feb-15 12:30N 27°56' W 082°27'0 0.0
2018-Feb-15 12:00N 27°56' W 082°27'0 0.0
2018-Feb-15 11:30N 27°56' W 082°27'0 0.0
2018-Feb-15 11:00N 27°56' W 082°27'0 0.0
2018-Feb-15 10:30N 27°56' W 082°27'0 0.0
2018-Feb-15 10:00N 27°56' W 082°27'0 0.0
2018-Feb-15 09:24N 27°56' W 082°27'0 0.0
2018-Feb-15 09:00N 27°56' W 082°27'0 0.0
2018-Feb-15 08:30N 27°56' W 082°27'0 0.0
2018-Feb-15 08:00N 27°56' W 082°27'0 0.0
2018-Feb-15 07:30N 27°56' W 082°27'0 0.0
2018-Feb-15 06:57N 27°56' W 082°27'0 0.0
2018-Feb-15 06:24N 27°56' W 082°27'0 0.0
2018-Feb-15 06:00N 27°56' W 082°27'0 0.0
2018-Feb-15 05:30N 27°56' W 082°27'0 0.0
2018-Feb-15 05:00N 27°56' W 082°27'0 0.0
2018-Feb-15 04:27N 27°56' W 082°27'0 0.0
2018-Feb-15 03:57N 27°56' W 082°27'0 0.0
2018-Feb-15 03:30N 27°56' W 082°27'0 0.0
2018-Feb-15 03:00N 27°56' W 082°27'0 0.0
2018-Feb-15 02:30N 27°56' W 082°27'0 0.0
2018-Feb-15 02:00N 27°56' W 082°27'0 0.0
2018-Feb-15 01:30N 27°56' W 082°27'0 0.0
2018-Feb-15 01:00N 27°56' W 082°27'1 2.3
2018-Feb-15 00:30N 27°55' W 082°27'0 0.7
2018-Feb-14 23:57N 27°55' W 082°27'0 0.0
2018-Feb-14 23:30N 27°55' W 082°27'2 3.2
2018-Feb-14 23:00N 27°53' W 082°26'5 9.2
2018-Feb-14 22:28N 27°48' W 082°27'4 8.9
2018-Feb-14 22:00N 27°46' W 082°31'9 0.4
2018-Feb-14 01:03N 27°38' W 082°34'0 0.1
2018-Feb-14 01:00N 27°38' W 082°34'  
Track history (hours):
 
Tides and Currents Weather Stations Pressure Air Temp Water Temp Dewpoint Dewpoint Depression Visibility Wind Speed Wind Dir Waves Ship Positions

Barbara E Bouchard

Owner: TUG BARBARA E BOUCHARD CORP, MELVILLE, NY. More information available from US FCC via Universal Licensing System and Coast Guard Vessel Documentation Center.

Last reported at 2018-Feb-19 19:33 UTC. Time now 2018-Feb-24 05:58 UTC.
Position N 29°19' W 094°36'.

Length 175 m; draft 6.7 m.

Type: Ship (hazmat cat D). MMSI: 367006520.

Date/timePositionNaut miles runAvg speedWind from/ knotsBaromVisibWave heightAir tempDewpointWater temp
2018-Feb-19 19:33N 29°19' W 094°36'0 0.0
2018-Feb-19 16:27N 29°19' W 094°36'0 0.0
2018-Feb-19 14:09N 29°19' W 094°36'0 0.0
2018-Feb-19 11:09N 29°19' W 094°36'0 0.0
2018-Feb-19 10:48N 29°19' W 094°36'0 0.0
2018-Feb-19 09:21N 29°19' W 094°36'0 0.0
2018-Feb-19 08:48N 29°19' W 094°36'0 0.0
2018-Feb-19 08:21N 29°19' W 094°36'0 0.0
2018-Feb-19 07:27N 29°19' W 094°36'0 0.0
2018-Feb-19 07:00N 29°19' W 094°36'0 0.0
2018-Feb-19 05:54N 29°19' W 094°36'0 0.0
2018-Feb-19 05:24N 29°19' W 094°36'  
2018-Feb-15 22:06N 27°42' W 082°33'110.1
2018-Feb-15 21:59N 27°43' W 082°32'5 8.9
2018-Feb-15 21:26N 27°48' W 082°30'4 8.5
2018-Feb-15 20:59N 27°50' W 082°27'4 8.8
2018-Feb-15 20:30N 27°55' W 082°26'0 0.5
2018-Feb-15 20:00N 27°55' W 082°27'0 0.0
2018-Feb-15 19:27N 27°55' W 082°27'0 0.1
2018-Feb-15 19:00N 27°55' W 082°27'1 2.7
2018-Feb-15 18:27N 27°56' W 082°27'0 0.0
2018-Feb-15 18:00N 27°56' W 082°27'0 0.0
2018-Feb-15 17:30N 27°56' W 082°27'0 0.0
2018-Feb-15 17:00N 27°56' W 082°27'0 0.0
2018-Feb-15 16:27N 27°56' W 082°27'0 0.0
2018-Feb-15 16:00N 27°56' W 082°27'0 0.0
2018-Feb-15 15:30N 27°56' W 082°27'0 0.0
2018-Feb-15 14:57N 27°56' W 082°27'0 0.0
2018-Feb-15 14:30N 27°56' W 082°27'0 0.0
2018-Feb-15 14:00N 27°56' W 082°27'0 0.0
2018-Feb-15 13:27N 27°56' W 082°27'0 0.0
2018-Feb-15 13:00N 27°56' W 082°27'0 0.0
2018-Feb-15 12:30N 27°56' W 082°27'0 0.0
2018-Feb-15 12:00N 27°56' W 082°27'0 0.0
2018-Feb-15 11:30N 27°56' W 082°27'0 0.0
2018-Feb-15 11:00N 27°56' W 082°27'0 0.0
2018-Feb-15 10:30N 27°56' W 082°27'0 0.0
2018-Feb-15 10:00N 27°56' W 082°27'0 0.0
2018-Feb-15 09:24N 27°56' W 082°27'0 0.0
2018-Feb-15 09:00N 27°56' W 082°27'0 0.0
2018-Feb-15 08:30N 27°56' W 082°27'0 0.0
2018-Feb-15 08:00N 27°56' W 082°27'0 0.0
2018-Feb-15 07:30N 27°56' W 082°27'0 0.0
2018-Feb-15 06:57N 27°56' W 082°27'0 0.0
2018-Feb-15 06:24N 27°56' W 082°27'0 0.0
2018-Feb-15 06:00N 27°56' W 082°27'0 0.0
2018-Feb-15 05:30N 27°56' W 082°27'0 0.0
2018-Feb-15 05:00N 27°56' W 082°27'0 0.0
2018-Feb-15 04:27N 27°56' W 082°27'0 0.0
2018-Feb-15 03:57N 27°56' W 082°27'0 0.0
2018-Feb-15 03:30N 27°56' W 082°27'0 0.0
2018-Feb-15 03:00N 27°56' W 082°27'0 0.0
2018-Feb-15 02:30N 27°56' W 082°27'0 0.0
2018-Feb-15 02:00N 27°56' W 082°27'0 0.0
2018-Feb-15 01:30N 27°56' W 082°27'0 0.0
2018-Feb-15 01:00N 27°56' W 082°27'1 2.3
2018-Feb-15 00:30N 27°55' W 082°27'0 0.7
2018-Feb-14 23:57N 27°55' W 082°27'0 0.0
2018-Feb-14 23:30N 27°55' W 082°27'2 3.2
2018-Feb-14 23:00N 27°53' W 082°26'5 9.2
2018-Feb-14 22:28N 27°48' W 082°27'4 8.9
2018-Feb-14 22:00N 27°46' W 082°31'9 0.4
2018-Feb-14 01:03N 27°38' W 082°34'0 0.1
2018-Feb-14 01:00N 27°38' W 082°34'  

Dump ship's entire track history